sensor_id;sensor_type;location;lat;lon;timestamp;P1;durP1;ratioP1;P2;durP2;ratioP2
4057;SDS011;2044;48.692;9.020;2022-12-10T00:01:07;56.50;;;22.80;;
4057;SDS011;2044;48.692;9.020;2022-12-10T00:03:36;60.70;;;25.87;;
4057;SDS011;2044;48.692;9.020;2022-12-10T00:06:05;52.40;;;23.23;;
4057;SDS011;2044;48.692;9.020;2022-12-10T00:08:34;63.47;;;27.07;;
4057;SDS011;2044;48.692;9.020;2022-12-10T00:11:02;55.93;;;24.23;;
4057;SDS011;2044;48.692;9.020;2022-12-10T00:13:30;60.73;;;25.53;;
4057;SDS011;2044;48.692;9.020;2022-12-10T00:15:58;47.97;;;22.63;;
4057;SDS011;2044;48.692;9.020;2022-12-10T00:18:26;55.93;;;24.67;;
4057;SDS011;2044;48.692;9.020;2022-12-10T00:20:52;56.53;;;24.90;;
4057;SDS011;2044;48.692;9.020;2022-12-10T00:23:20;58.20;;;25.00;;
4057;SDS011;2044;48.692;9.020;2022-12-10T00:25:47;66.47;;;24.93;;
4057;SDS011;2044;48.692;9.020;2022-12-10T00:28:14;63.03;;;26.57;;
4057;SDS011;2044;48.692;9.020;2022-12-10T00:30:41;59.60;;;24.40;;
4057;SDS011;2044;48.692;9.020;2022-12-10T00:33:07;66.10;;;25.57;;
4057;SDS011;2044;48.692;9.020;2022-12-10T00:35:34;59.93;;;25.50;;
4057;SDS011;2044;48.692;9.020;2022-12-10T00:38:01;55.97;;;24.87;;
4057;SDS011;2044;48.692;9.020;2022-12-10T00:40:30;54.30;;;24.00;;
4057;SDS011;2044;48.692;9.020;2022-12-10T00:42:58;56.43;;;23.20;;
4057;SDS011;2044;48.692;9.020;2022-12-10T00:45:25;45.97;;;23.83;;
4057;SDS011;2044;48.692;9.020;2022-12-10T00:47:52;57.70;;;23.77;;
4057;SDS011;2044;48.692;9.020;2022-12-10T00:50:18;53.63;;;24.00;;
4057;SDS011;2044;48.692;9.020;2022-12-10T00:52:45;60.43;;;24.17;;
4057;SDS011;2044;48.692;9.020;2022-12-10T00:55:12;60.93;;;24.47;;
4057;SDS011;2044;48.692;9.020;2022-12-10T00:57:40;58.57;;;25.00;;
4057;SDS011;2044;48.692;9.020;2022-12-10T01:00:07;55.10;;;23.60;;
4057;SDS011;2044;48.692;9.020;2022-12-10T01:02:34;49.00;;;22.67;;
4057;SDS011;2044;48.692;9.020;2022-12-10T01:05:01;56.63;;;24.70;;
4057;SDS011;2044;48.692;9.020;2022-12-10T01:07:28;50.80;;;23.00;;
4057;SDS011;2044;48.692;9.020;2022-12-10T01:09:55;56.47;;;24.97;;
4057;SDS011;2044;48.692;9.020;2022-12-10T01:12:22;54.40;;;23.67;;
4057;SDS011;2044;48.692;9.020;2022-12-10T01:14:50;54.60;;;24.87;;
4057;SDS011;2044;48.692;9.020;2022-12-10T01:17:16;57.57;;;25.13;;
4057;SDS011;2044;48.692;9.020;2022-12-10T01:19:43;55.03;;;25.80;;
4057;SDS011;2044;48.692;9.020;2022-12-10T01:22:10;57.20;;;23.10;;
4057;SDS011;2044;48.692;9.020;2022-12-10T01:24:36;46.33;;;21.60;;
4057;SDS011;2044;48.692;9.020;2022-12-10T01:27:03;68.57;;;25.63;;
4057;SDS011;2044;48.692;9.020;2022-12-10T01:29:30;55.83;;;23.90;;
4057;SDS011;2044;48.692;9.020;2022-12-10T01:31:58;62.80;;;25.37;;
4057;SDS011;2044;48.692;9.020;2022-12-10T01:34:25;64.83;;;25.53;;
4057;SDS011;2044;48.692;9.020;2022-12-10T01:36:52;59.47;;;24.27;;
4057;SDS011;2044;48.692;9.020;2022-12-10T01:39:20;51.83;;;22.70;;
4057;SDS011;2044;48.692;9.020;2022-12-10T01:41:48;59.03;;;24.50;;
4057;SDS011;2044;48.692;9.020;2022-12-10T01:47:21;50.50;;;22.43;;
4057;SDS011;2044;48.692;9.020;2022-12-10T01:49:48;59.33;;;24.80;;
4057;SDS011;2044;48.692;9.020;2022-12-10T01:52:15;57.33;;;24.27;;
4057;SDS011;2044;48.692;9.020;2022-12-10T01:54:42;55.60;;;24.47;;
4057;SDS011;2044;48.692;9.020;2022-12-10T01:57:12;53.50;;;22.53;;
4057;SDS011;2044;48.692;9.020;2022-12-10T01:59:41;66.63;;;24.80;;
4057;SDS011;2044;48.692;9.020;2022-12-10T02:02:11;57.03;;;25.20;;
4057;SDS011;2044;48.692;9.020;2022-12-10T02:04:46;57.47;;;26.73;;
4057;SDS011;2044;48.692;9.020;2022-12-10T02:07:20;55.63;;;23.73;;
4057;SDS011;2044;48.692;9.020;2022-12-10T02:09:54;58.10;;;24.40;;
4057;SDS011;2044;48.692;9.020;2022-12-10T02:12:26;57.30;;;24.30;;
4057;SDS011;2044;48.692;9.020;2022-12-10T02:15:02;46.10;;;20.60;;
4057;SDS011;2044;48.692;9.020;2022-12-10T02:17:34;56.87;;;25.30;;
4057;SDS011;2044;48.692;9.020;2022-12-10T02:20:08;55.37;;;23.57;;
4057;SDS011;2044;48.692;9.020;2022-12-10T02:22:41;55.37;;;26.80;;
4057;SDS011;2044;48.692;9.020;2022-12-10T02:25:11;52.60;;;21.87;;
4057;SDS011;2044;48.692;9.020;2022-12-10T02:27:43;46.97;;;22.30;;
4057;SDS011;2044;48.692;9.020;2022-12-10T02:30:15;60.30;;;24.37;;
4057;SDS011;2044;48.692;9.020;2022-12-10T02:32:42;43.53;;;21.57;;
4057;SDS011;2044;48.692;9.020;2022-12-10T02:35:13;51.60;;;20.50;;
4057;SDS011;2044;48.692;9.020;2022-12-10T02:37:45;53.03;;;25.70;;
4057;SDS011;2044;48.692;9.020;2022-12-10T02:40:16;42.53;;;19.97;;
4057;SDS011;2044;48.692;9.020;2022-12-10T02:42:47;58.17;;;24.70;;
4057;SDS011;2044;48.692;9.020;2022-12-10T02:45:18;65.00;;;27.93;;
4057;SDS011;2044;48.692;9.020;2022-12-10T02:47:48;57.60;;;25.13;;
4057;SDS011;2044;48.692;9.020;2022-12-10T02:50:15;53.10;;;26.20;;
4057;SDS011;2044;48.692;9.020;2022-12-10T02:52:45;51.10;;;23.00;;
4057;SDS011;2044;48.692;9.020;2022-12-10T02:55:12;61.97;;;27.87;;
4057;SDS011;2044;48.692;9.020;2022-12-10T02:57:41;68.00;;;31.77;;
4057;SDS011;2044;48.692;9.020;2022-12-10T03:00:21;58.37;;;27.03;;
4057;SDS011;2044;48.692;9.020;2022-12-10T03:03:03;59.57;;;23.97;;
4057;SDS011;2044;48.692;9.020;2022-12-10T03:05:40;54.23;;;23.00;;
4057;SDS011;2044;48.692;9.020;2022-12-10T03:08:12;53.77;;;23.17;;
4057;SDS011;2044;48.692;9.020;2022-12-10T03:10:44;55.17;;;23.63;;
4057;SDS011;2044;48.692;9.020;2022-12-10T03:13:18;60.20;;;24.13;;
4057;SDS011;2044;48.692;9.020;2022-12-10T03:15:51;63.97;;;23.97;;
4057;SDS011;2044;48.692;9.020;2022-12-10T03:18:19;53.97;;;22.17;;
4057;SDS011;2044;48.692;9.020;2022-12-10T03:20:49;43.87;;;20.47;;
4057;SDS011;2044;48.692;9.020;2022-12-10T03:23:20;53.97;;;24.47;;
4057;SDS011;2044;48.692;9.020;2022-12-10T03:25:47;58.77;;;24.07;;
4057;SDS011;2044;48.692;9.020;2022-12-10T03:28:16;57.63;;;24.90;;
4057;SDS011;2044;48.692;9.020;2022-12-10T03:30:45;56.50;;;22.97;;
4057;SDS011;2044;48.692;9.020;2022-12-10T03:33:16;50.93;;;21.57;;
4057;SDS011;2044;48.692;9.020;2022-12-10T03:35:43;61.07;;;24.47;;
4057;SDS011;2044;48.692;9.020;2022-12-10T03:38:11;53.43;;;22.43;;
4057;SDS011;2044;48.692;9.020;2022-12-10T03:40:39;53.10;;;23.53;;
4057;SDS011;2044;48.692;9.020;2022-12-10T03:43:06;61.47;;;23.80;;
4057;SDS011;2044;48.692;9.020;2022-12-10T03:45:33;54.27;;;24.80;;
4057;SDS011;2044;48.692;9.020;2022-12-10T03:48:00;52.53;;;22.73;;
4057;SDS011;2044;48.692;9.020;2022-12-10T03:50:28;56.23;;;22.30;;
4057;SDS011;2044;48.692;9.020;2022-12-10T03:52:55;57.50;;;24.00;;
4057;SDS011;2044;48.692;9.020;2022-12-10T03:55:21;59.23;;;23.10;;
4057;SDS011;2044;48.692;9.020;2022-12-10T03:57:48;57.23;;;25.20;;
4057;SDS011;2044;48.692;9.020;2022-12-10T04:00:15;47.73;;;20.77;;
4057;SDS011;2044;48.692;9.020;2022-12-10T04:02:42;62.07;;;25.07;;
4057;SDS011;2044;48.692;9.020;2022-12-10T04:05:09;53.57;;;23.63;;
4057;SDS011;2044;48.692;9.020;2022-12-10T04:07:37;51.97;;;22.60;;
4057;SDS011;2044;48.692;9.020;2022-12-10T04:10:04;47.60;;;22.97;;
4057;SDS011;2044;48.692;9.020;2022-12-10T04:12:31;55.00;;;23.83;;
4057;SDS011;2044;48.692;9.020;2022-12-10T04:14:58;49.83;;;23.17;;
4057;SDS011;2044;48.692;9.020;2022-12-10T04:17:42;58.23;;;22.57;;
4057;SDS011;2044;48.692;9.020;2022-12-10T04:20:09;59.97;;;23.53;;
4057;SDS011;2044;48.692;9.020;2022-12-10T04:22:57;50.40;;;22.37;;
4057;SDS011;2044;48.692;9.020;2022-12-10T04:25:42;53.63;;;23.20;;
4057;SDS011;2044;48.692;9.020;2022-12-10T04:28:26;52.70;;;24.60;;
4057;SDS011;2044;48.692;9.020;2022-12-10T04:30:53;51.87;;;21.93;;
4057;SDS011;2044;48.692;9.020;2022-12-10T04:33:20;55.40;;;22.20;;
4057;SDS011;2044;48.692;9.020;2022-12-10T04:35:46;59.27;;;25.10;;
4057;SDS011;2044;48.692;9.020;2022-12-10T04:38:14;46.83;;;22.67;;
4057;SDS011;2044;48.692;9.020;2022-12-10T04:40:41;48.53;;;21.00;;
4057;SDS011;2044;48.692;9.020;2022-12-10T04:43:08;52.57;;;21.80;;
4057;SDS011;2044;48.692;9.020;2022-12-10T04:45:35;49.37;;;22.00;;
4057;SDS011;2044;48.692;9.020;2022-12-10T04:48:01;53.87;;;23.00;;
4057;SDS011;2044;48.692;9.020;2022-12-10T04:50:28;55.70;;;22.57;;
4057;SDS011;2044;48.692;9.020;2022-12-10T04:52:55;54.70;;;26.33;;
4057;SDS011;2044;48.692;9.020;2022-12-10T04:55:23;54.53;;;24.37;;
4057;SDS011;2044;48.692;9.020;2022-12-10T04:57:50;55.67;;;26.00;;
4057;SDS011;2044;48.692;9.020;2022-12-10T05:00:17;57.20;;;23.83;;
4057;SDS011;2044;48.692;9.020;2022-12-10T05:02:44;52.10;;;24.07;;
4057;SDS011;2044;48.692;9.020;2022-12-10T05:05:13;48.90;;;23.50;;
4057;SDS011;2044;48.692;9.020;2022-12-10T05:07:40;70.53;;;24.20;;
4057;SDS011;2044;48.692;9.020;2022-12-10T05:10:07;59.63;;;27.50;;
4057;SDS011;2044;48.692;9.020;2022-12-10T05:12:35;50.37;;;22.87;;
4057;SDS011;2044;48.692;9.020;2022-12-10T05:15:02;54.53;;;23.20;;
4057;SDS011;2044;48.692;9.020;2022-12-10T05:17:29;55.30;;;22.67;;
4057;SDS011;2044;48.692;9.020;2022-12-10T05:19:56;39.50;;;20.23;;
4057;SDS011;2044;48.692;9.020;2022-12-10T05:22:23;53.03;;;22.60;;
4057;SDS011;2044;48.692;9.020;2022-12-10T05:25:07;48.70;;;22.40;;
4057;SDS011;2044;48.692;9.020;2022-12-10T05:27:35;52.63;;;22.20;;
4057;SDS011;2044;48.692;9.020;2022-12-10T05:30:02;55.27;;;24.23;;
4057;SDS011;2044;48.692;9.020;2022-12-10T05:32:30;46.27;;;22.17;;
4057;SDS011;2044;48.692;9.020;2022-12-10T05:34:58;65.63;;;24.40;;
4057;SDS011;2044;48.692;9.020;2022-12-10T05:37:25;51.13;;;22.47;;
4057;SDS011;2044;48.692;9.020;2022-12-10T05:39:53;49.77;;;22.97;;
4057;SDS011;2044;48.692;9.020;2022-12-10T05:42:20;47.97;;;22.20;;
4057;SDS011;2044;48.692;9.020;2022-12-10T05:44:48;52.13;;;21.10;;
4057;SDS011;2044;48.692;9.020;2022-12-10T05:47:15;51.07;;;21.60;;
4057;SDS011;2044;48.692;9.020;2022-12-10T05:49:41;50.40;;;21.20;;
4057;SDS011;2044;48.692;9.020;2022-12-10T05:52:08;45.20;;;21.00;;
4057;SDS011;2044;48.692;9.020;2022-12-10T05:54:35;43.97;;;20.30;;
4057;SDS011;2044;48.692;9.020;2022-12-10T05:57:02;46.63;;;22.30;;
4057;SDS011;2044;48.692;9.020;2022-12-10T05:59:29;52.20;;;22.10;;
4057;SDS011;2044;48.692;9.020;2022-12-10T06:01:57;52.13;;;22.17;;
4057;SDS011;2044;48.692;9.020;2022-12-10T06:04:24;52.83;;;22.80;;
4057;SDS011;2044;48.692;9.020;2022-12-10T06:06:50;50.50;;;21.10;;
4057;SDS011;2044;48.692;9.020;2022-12-10T06:09:17;52.27;;;24.80;;
4057;SDS011;2044;48.692;9.020;2022-12-10T06:11:44;42.57;;;19.53;;
4057;SDS011;2044;48.692;9.020;2022-12-10T06:14:11;50.50;;;21.63;;
4057;SDS011;2044;48.692;9.020;2022-12-10T06:16:38;50.30;;;21.50;;
4057;SDS011;2044;48.692;9.020;2022-12-10T06:19:07;41.07;;;17.90;;
4057;SDS011;2044;48.692;9.020;2022-12-10T06:21:34;60.07;;;21.10;;
4057;SDS011;2044;48.692;9.020;2022-12-10T06:24:01;42.43;;;19.80;;
4057;SDS011;2044;48.692;9.020;2022-12-10T06:26:28;54.80;;;21.90;;
4057;SDS011;2044;48.692;9.020;2022-12-10T06:28:54;37.00;;;17.10;;
4057;SDS011;2044;48.692;9.020;2022-12-10T06:31:22;53.60;;;22.80;;
4057;SDS011;2044;48.692;9.020;2022-12-10T06:33:49;53.23;;;19.90;;
4057;SDS011;2044;48.692;9.020;2022-12-10T06:36:18;50.40;;;22.90;;
4057;SDS011;2044;48.692;9.020;2022-12-10T06:38:45;57.17;;;21.23;;
4057;SDS011;2044;48.692;9.020;2022-12-10T06:41:13;41.93;;;19.93;;
4057;SDS011;2044;48.692;9.020;2022-12-10T06:43:41;41.20;;;19.43;;
4057;SDS011;2044;48.692;9.020;2022-12-10T06:46:08;40.40;;;16.90;;
4057;SDS011;2044;48.692;9.020;2022-12-10T06:48:36;38.03;;;18.13;;
4057;SDS011;2044;48.692;9.020;2022-12-10T06:51:04;48.93;;;21.03;;
4057;SDS011;2044;48.692;9.020;2022-12-10T06:53:33;47.13;;;18.87;;
4057;SDS011;2044;48.692;9.020;2022-12-10T06:56:01;49.73;;;21.17;;
4057;SDS011;2044;48.692;9.020;2022-12-10T06:58:29;43.30;;;20.00;;
4057;SDS011;2044;48.692;9.020;2022-12-10T07:01:01;44.73;;;20.07;;
4057;SDS011;2044;48.692;9.020;2022-12-10T07:03:29;45.60;;;19.97;;
4057;SDS011;2044;48.692;9.020;2022-12-10T07:05:56;26.83;;;13.77;;
4057;SDS011;2044;48.692;9.020;2022-12-10T07:08:23;46.30;;;20.90;;
4057;SDS011;2044;48.692;9.020;2022-12-10T07:10:51;52.70;;;20.67;;
4057;SDS011;2044;48.692;9.020;2022-12-10T07:13:18;56.50;;;23.20;;
4057;SDS011;2044;48.692;9.020;2022-12-10T07:15:45;48.07;;;20.50;;
4057;SDS011;2044;48.692;9.020;2022-12-10T07:18:12;46.70;;;19.13;;
4057;SDS011;2044;48.692;9.020;2022-12-10T07:20:39;48.93;;;20.30;;
4057;SDS011;2044;48.692;9.020;2022-12-10T07:23:05;46.23;;;21.17;;
4057;SDS011;2044;48.692;9.020;2022-12-10T07:25:32;53.03;;;20.90;;
4057;SDS011;2044;48.692;9.020;2022-12-10T07:28:00;47.33;;;22.67;;
4057;SDS011;2044;48.692;9.020;2022-12-10T07:30:27;46.90;;;20.47;;
4057;SDS011;2044;48.692;9.020;2022-12-10T07:32:54;49.27;;;21.37;;
4057;SDS011;2044;48.692;9.020;2022-12-10T07:35:20;48.97;;;22.00;;
4057;SDS011;2044;48.692;9.020;2022-12-10T07:37:47;48.23;;;21.60;;
4057;SDS011;2044;48.692;9.020;2022-12-10T07:40:14;50.27;;;23.70;;
4057;SDS011;2044;48.692;9.020;2022-12-10T07:42:40;38.37;;;19.00;;
4057;SDS011;2044;48.692;9.020;2022-12-10T07:45:09;56.80;;;25.10;;
4057;SDS011;2044;48.692;9.020;2022-12-10T07:47:36;38.70;;;18.13;;
4057;SDS011;2044;48.692;9.020;2022-12-10T07:50:04;46.90;;;20.50;;
4057;SDS011;2044;48.692;9.020;2022-12-10T07:52:31;45.20;;;19.03;;
4057;SDS011;2044;48.692;9.020;2022-12-10T07:54:58;52.43;;;21.67;;
4057;SDS011;2044;48.692;9.020;2022-12-10T07:57:25;49.30;;;23.40;;
4057;SDS011;2044;48.692;9.020;2022-12-10T07:59:52;50.47;;;21.87;;
4057;SDS011;2044;48.692;9.020;2022-12-10T08:02:20;57.63;;;23.67;;
4057;SDS011;2044;48.692;9.020;2022-12-10T08:04:47;53.03;;;21.93;;
4057;SDS011;2044;48.692;9.020;2022-12-10T08:07:13;49.87;;;22.17;;
4057;SDS011;2044;48.692;9.020;2022-12-10T08:09:40;48.93;;;21.30;;
4057;SDS011;2044;48.692;9.020;2022-12-10T08:12:07;55.90;;;21.50;;
4057;SDS011;2044;48.692;9.020;2022-12-10T08:14:34;42.73;;;20.43;;
4057;SDS011;2044;48.692;9.020;2022-12-10T08:17:00;53.27;;;22.53;;
4057;SDS011;2044;48.692;9.020;2022-12-10T08:19:29;44.03;;;20.27;;
4057;SDS011;2044;48.692;9.020;2022-12-10T08:21:56;52.57;;;22.70;;
4057;SDS011;2044;48.692;9.020;2022-12-10T08:24:23;39.80;;;16.10;;
4057;SDS011;2044;48.692;9.020;2022-12-10T08:26:50;45.37;;;20.67;;
4057;SDS011;2044;48.692;9.020;2022-12-10T08:29:16;47.63;;;21.53;;
4057;SDS011;2044;48.692;9.020;2022-12-10T08:31:43;46.47;;;20.17;;
4057;SDS011;2044;48.692;9.020;2022-12-10T08:34:11;50.17;;;21.60;;
4057;SDS011;2044;48.692;9.020;2022-12-10T08:36:40;50.83;;;22.07;;
4057;SDS011;2044;48.692;9.020;2022-12-10T08:39:06;59.53;;;20.80;;
4057;SDS011;2044;48.692;9.020;2022-12-10T08:41:35;55.17;;;22.10;;
4057;SDS011;2044;48.692;9.020;2022-12-10T08:44:02;48.30;;;21.00;;
4057;SDS011;2044;48.692;9.020;2022-12-10T08:46:29;49.97;;;21.00;;
4057;SDS011;2044;48.692;9.020;2022-12-10T08:48:56;45.73;;;20.27;;
4057;SDS011;2044;48.692;9.020;2022-12-10T08:51:24;40.90;;;18.50;;
4057;SDS011;2044;48.692;9.020;2022-12-10T08:53:52;41.50;;;18.47;;
4057;SDS011;2044;48.692;9.020;2022-12-10T08:56:18;49.77;;;22.00;;
4057;SDS011;2044;48.692;9.020;2022-12-10T08:58:45;48.33;;;22.00;;
4057;SDS011;2044;48.692;9.020;2022-12-10T09:01:13;55.90;;;23.03;;
4057;SDS011;2044;48.692;9.020;2022-12-10T09:03:41;54.50;;;23.23;;
4057;SDS011;2044;48.692;9.020;2022-12-10T09:06:08;44.07;;;21.20;;
4057;SDS011;2044;48.692;9.020;2022-12-10T09:08:37;47.30;;;20.90;;
4057;SDS011;2044;48.692;9.020;2022-12-10T09:11:06;40.30;;;18.20;;
4057;SDS011;2044;48.692;9.020;2022-12-10T09:13:34;31.57;;;14.93;;
4057;SDS011;2044;48.692;9.020;2022-12-10T09:16:01;42.50;;;19.40;;
4057;SDS011;2044;48.692;9.020;2022-12-10T09:18:28;42.37;;;19.23;;
4057;SDS011;2044;48.692;9.020;2022-12-10T09:20:55;47.80;;;20.57;;
4057;SDS011;2044;48.692;9.020;2022-12-10T09:23:22;37.40;;;15.10;;
4057;SDS011;2044;48.692;9.020;2022-12-10T09:25:49;40.03;;;17.50;;
4057;SDS011;2044;48.692;9.020;2022-12-10T09:28:17;43.70;;;20.03;;
4057;SDS011;2044;48.692;9.020;2022-12-10T09:30:44;51.30;;;19.60;;
4057;SDS011;2044;48.692;9.020;2022-12-10T09:33:11;47.27;;;21.00;;
4057;SDS011;2044;48.692;9.020;2022-12-10T09:35:40;50.07;;;20.60;;
4057;SDS011;2044;48.692;9.020;2022-12-10T09:38:07;48.83;;;18.00;;
4057;SDS011;2044;48.692;9.020;2022-12-10T09:40:35;51.10;;;20.70;;
4057;SDS011;2044;48.692;9.020;2022-12-10T09:43:10;52.73;;;20.43;;
4057;SDS011;2044;48.692;9.020;2022-12-10T09:45:46;43.60;;;18.27;;
4057;SDS011;2044;48.692;9.020;2022-12-10T09:48:27;49.47;;;20.80;;
4057;SDS011;2044;48.692;9.020;2022-12-10T09:50:59;45.23;;;18.80;;
4057;SDS011;2044;48.692;9.020;2022-12-10T09:53:35;48.03;;;21.53;;
4057;SDS011;2044;48.692;9.020;2022-12-10T09:56:04;46.30;;;19.77;;
4057;SDS011;2044;48.692;9.020;2022-12-10T09:58:33;39.53;;;19.07;;
4057;SDS011;2044;48.692;9.020;2022-12-10T10:01:04;50.23;;;20.87;;
4057;SDS011;2044;48.692;9.020;2022-12-10T10:03:34;44.20;;;20.10;;
4057;SDS011;2044;48.692;9.020;2022-12-10T10:06:03;31.33;;;14.47;;
4057;SDS011;2044;48.692;9.020;2022-12-10T10:08:32;42.57;;;18.80;;
4057;SDS011;2044;48.692;9.020;2022-12-10T10:11:01;34.83;;;14.80;;
4057;SDS011;2044;48.692;9.020;2022-12-10T10:13:31;25.77;;;13.00;;
4057;SDS011;2044;48.692;9.020;2022-12-10T10:16:07;40.27;;;19.20;;
4057;SDS011;2044;48.692;9.020;2022-12-10T10:18:45;44.07;;;20.20;;
4057;SDS011;2044;48.692;9.020;2022-12-10T10:21:16;38.77;;;18.60;;
4057;SDS011;2044;48.692;9.020;2022-12-10T10:23:47;34.97;;;16.90;;
4057;SDS011;2044;48.692;9.020;2022-12-10T10:26:14;45.33;;;19.00;;
4057;SDS011;2044;48.692;9.020;2022-12-10T10:28:41;30.73;;;12.27;;
4057;SDS011;2044;48.692;9.020;2022-12-10T10:31:15;41.53;;;19.67;;
4057;SDS011;2044;48.692;9.020;2022-12-10T10:33:47;37.93;;;17.47;;
4057;SDS011;2044;48.692;9.020;2022-12-10T10:36:15;31.23;;;14.87;;
4057;SDS011;2044;48.692;9.020;2022-12-10T10:38:46;43.87;;;19.93;;
4057;SDS011;2044;48.692;9.020;2022-12-10T10:41:14;25.47;;;11.90;;
4057;SDS011;2044;48.692;9.020;2022-12-10T10:43:41;43.53;;;17.93;;
4057;SDS011;2044;48.692;9.020;2022-12-10T10:46:11;28.90;;;13.60;;
4057;SDS011;2044;48.692;9.020;2022-12-10T10:48:40;37.63;;;17.93;;
4057;SDS011;2044;48.692;9.020;2022-12-10T10:51:08;42.40;;;18.30;;
4057;SDS011;2044;48.692;9.020;2022-12-10T10:53:44;30.97;;;13.37;;
4057;SDS011;2044;48.692;9.020;2022-12-10T10:56:13;35.93;;;15.40;;
4057;SDS011;2044;48.692;9.020;2022-12-10T10:58:47;43.50;;;17.90;;
4057;SDS011;2044;48.692;9.020;2022-12-10T11:01:18;41.60;;;17.40;;
4057;SDS011;2044;48.692;9.020;2022-12-10T11:03:48;36.80;;;18.50;;
4057;SDS011;2044;48.692;9.020;2022-12-10T11:06:16;42.53;;;17.73;;
4057;SDS011;2044;48.692;9.020;2022-12-10T11:08:44;38.30;;;17.37;;
4057;SDS011;2044;48.692;9.020;2022-12-10T11:11:17;42.90;;;19.80;;
4057;SDS011;2044;48.692;9.020;2022-12-10T11:13:46;41.60;;;17.90;;
4057;SDS011;2044;48.692;9.020;2022-12-10T11:16:17;37.40;;;16.83;;
4057;SDS011;2044;48.692;9.020;2022-12-10T11:18:54;42.50;;;18.67;;
4057;SDS011;2044;48.692;9.020;2022-12-10T11:21:27;34.83;;;16.60;;
4057;SDS011;2044;48.692;9.020;2022-12-10T11:23:55;33.20;;;16.60;;
4057;SDS011;2044;48.692;9.020;2022-12-10T11:26:30;34.73;;;16.80;;
4057;SDS011;2044;48.692;9.020;2022-12-10T11:29:17;33.40;;;15.87;;
4057;SDS011;2044;48.692;9.020;2022-12-10T11:31:55;26.37;;;12.80;;
4057;SDS011;2044;48.692;9.020;2022-12-10T11:34:48;32.40;;;16.20;;
4057;SDS011;2044;48.692;9.020;2022-12-10T11:37:28;31.97;;;15.50;;
4057;SDS011;2044;48.692;9.020;2022-12-10T11:40:05;32.57;;;15.40;;
4057;SDS011;2044;48.692;9.020;2022-12-10T11:42:51;27.53;;;15.23;;
4057;SDS011;2044;48.692;9.020;2022-12-10T11:45:30;24.60;;;13.17;;
4057;SDS011;2044;48.692;9.020;2022-12-10T11:48:12;32.17;;;13.77;;
4057;SDS011;2044;48.692;9.020;2022-12-10T11:50:56;28.73;;;13.47;;
4057;SDS011;2044;48.692;9.020;2022-12-10T11:53:32;25.03;;;10.10;;
4057;SDS011;2044;48.692;9.020;2022-12-10T11:56:13;30.10;;;15.70;;
4057;SDS011;2044;48.692;9.020;2022-12-10T11:58:57;31.03;;;15.23;;
4057;SDS011;2044;48.692;9.020;2022-12-10T12:01:44;33.80;;;15.90;;
4057;SDS011;2044;48.692;9.020;2022-12-10T12:04:33;30.10;;;13.30;;
4057;SDS011;2044;48.692;9.020;2022-12-10T12:07:29;27.97;;;15.03;;
4057;SDS011;2044;48.692;9.020;2022-12-10T12:10:26;31.57;;;15.00;;
4057;SDS011;2044;48.692;9.020;2022-12-10T12:13:13;25.90;;;13.93;;
4057;SDS011;2044;48.692;9.020;2022-12-10T12:15:43;33.47;;;16.80;;
4057;SDS011;2044;48.692;9.020;2022-12-10T12:18:16;31.40;;;16.50;;
4057;SDS011;2044;48.692;9.020;2022-12-10T12:20:47;44.10;;;21.23;;
4057;SDS011;2044;48.692;9.020;2022-12-10T12:23:19;31.20;;;15.70;;
4057;SDS011;2044;48.692;9.020;2022-12-10T12:25:51;34.30;;;16.47;;
4057;SDS011;2044;48.692;9.020;2022-12-10T12:28:22;32.87;;;15.00;;
4057;SDS011;2044;48.692;9.020;2022-12-10T12:30:54;39.40;;;16.90;;
4057;SDS011;2044;48.692;9.020;2022-12-10T12:33:28;27.73;;;15.23;;
4057;SDS011;2044;48.692;9.020;2022-12-10T12:35:59;20.87;;;9.73;;
4057;SDS011;2044;48.692;9.020;2022-12-10T12:38:38;25.20;;;11.57;;
4057;SDS011;2044;48.692;9.020;2022-12-10T12:41:13;21.23;;;10.90;;
4057;SDS011;2044;48.692;9.020;2022-12-10T12:43:43;22.97;;;11.93;;
4057;SDS011;2044;48.692;9.020;2022-12-10T12:46:16;26.10;;;13.53;;
4057;SDS011;2044;48.692;9.020;2022-12-10T12:48:49;28.40;;;15.17;;
4057;SDS011;2044;48.692;9.020;2022-12-10T12:51:21;30.07;;;14.60;;
4057;SDS011;2044;48.692;9.020;2022-12-10T12:53:54;30.87;;;13.87;;
4057;SDS011;2044;48.692;9.020;2022-12-10T12:56:22;30.43;;;13.70;;
4057;SDS011;2044;48.692;9.020;2022-12-10T12:58:59;25.37;;;13.07;;
4057;SDS011;2044;48.692;9.020;2022-12-10T13:01:32;27.37;;;12.97;;
4057;SDS011;2044;48.692;9.020;2022-12-10T13:04:05;30.03;;;13.90;;
4057;SDS011;2044;48.692;9.020;2022-12-10T13:06:33;27.00;;;12.70;;
4057;SDS011;2044;48.692;9.020;2022-12-10T13:09:23;25.77;;;11.50;;
4057;SDS011;2044;48.692;9.020;2022-12-10T13:15:00;33.80;;;13.53;;
4057;SDS011;2044;48.692;9.020;2022-12-10T13:17:38;24.23;;;12.40;;
4057;SDS011;2044;48.692;9.020;2022-12-10T13:22:57;29.43;;;15.00;;
4057;SDS011;2044;48.692;9.020;2022-12-10T13:25:39;32.07;;;13.97;;
4057;SDS011;2044;48.692;9.020;2022-12-10T13:28:21;22.67;;;11.37;;
4057;SDS011;2044;48.692;9.020;2022-12-10T13:31:06;23.90;;;12.13;;
4057;SDS011;2044;48.692;9.020;2022-12-10T13:33:50;23.27;;;12.57;;
4057;SDS011;2044;48.692;9.020;2022-12-10T13:36:24;23.77;;;11.23;;
4057;SDS011;2044;48.692;9.020;2022-12-10T13:38:57;21.53;;;10.03;;
4057;SDS011;2044;48.692;9.020;2022-12-10T13:41:40;29.77;;;11.67;;
4057;SDS011;2044;48.692;9.020;2022-12-10T13:44:46;20.97;;;10.57;;
4057;SDS011;2044;48.692;9.020;2022-12-10T13:47:24;27.53;;;12.43;;
4057;SDS011;2044;48.692;9.020;2022-12-10T13:49:53;26.50;;;12.87;;
4057;SDS011;2044;48.692;9.020;2022-12-10T13:52:23;30.23;;;13.43;;
4057;SDS011;2044;48.692;9.020;2022-12-10T13:55:17;24.70;;;13.10;;
4057;SDS011;2044;48.692;9.020;2022-12-10T14:00:52;27.53;;;12.60;;
4057;SDS011;2044;48.692;9.020;2022-12-10T14:03:33;17.13;;;8.40;;
4057;SDS011;2044;48.692;9.020;2022-12-10T14:06:12;26.10;;;13.20;;
4057;SDS011;2044;48.692;9.020;2022-12-10T14:08:46;26.13;;;12.33;;
4057;SDS011;2044;48.692;9.020;2022-12-10T14:11:26;33.17;;;13.87;;
4057;SDS011;2044;48.692;9.020;2022-12-10T14:13:58;18.47;;;8.73;;
4057;SDS011;2044;48.692;9.020;2022-12-10T14:16:27;25.90;;;12.30;;
4057;SDS011;2044;48.692;9.020;2022-12-10T14:18:57;22.00;;;10.27;;
4057;SDS011;2044;48.692;9.020;2022-12-10T14:21:27;25.63;;;11.60;;
4057;SDS011;2044;48.692;9.020;2022-12-10T14:23:59;27.20;;;11.80;;
4057;SDS011;2044;48.692;9.020;2022-12-10T14:26:27;29.97;;;13.23;;
4057;SDS011;2044;48.692;9.020;2022-12-10T14:28:56;27.00;;;12.77;;
4057;SDS011;2044;48.692;9.020;2022-12-10T14:31:28;25.27;;;11.87;;
4057;SDS011;2044;48.692;9.020;2022-12-10T14:33:59;25.13;;;10.40;;
4057;SDS011;2044;48.692;9.020;2022-12-10T14:36:28;22.77;;;12.47;;
4057;SDS011;2044;48.692;9.020;2022-12-10T14:38:57;21.27;;;11.17;;
4057;SDS011;2044;48.692;9.020;2022-12-10T14:41:25;23.93;;;10.27;;
4057;SDS011;2044;48.692;9.020;2022-12-10T14:43:55;29.60;;;12.23;;
4057;SDS011;2044;48.692;9.020;2022-12-10T14:46:29;22.37;;;12.03;;
4057;SDS011;2044;48.692;9.020;2022-12-10T14:48:57;27.00;;;13.27;;
4057;SDS011;2044;48.692;9.020;2022-12-10T14:51:25;26.57;;;13.13;;
4057;SDS011;2044;48.692;9.020;2022-12-10T14:53:57;33.00;;;13.43;;
4057;SDS011;2044;48.692;9.020;2022-12-10T14:56:26;27.50;;;12.63;;
4057;SDS011;2044;48.692;9.020;2022-12-10T14:59:00;19.80;;;9.47;;
4057;SDS011;2044;48.692;9.020;2022-12-10T15:01:35;26.43;;;13.53;;
4057;SDS011;2044;48.692;9.020;2022-12-10T15:04:06;21.53;;;12.20;;
4057;SDS011;2044;48.692;9.020;2022-12-10T15:06:40;23.43;;;11.57;;
4057;SDS011;2044;48.692;9.020;2022-12-10T15:09:11;22.47;;;12.00;;
4057;SDS011;2044;48.692;9.020;2022-12-10T15:11:41;21.97;;;11.13;;
4057;SDS011;2044;48.692;9.020;2022-12-10T15:14:14;25.07;;;11.50;;
4057;SDS011;2044;48.692;9.020;2022-12-10T15:16:44;25.03;;;12.20;;
4057;SDS011;2044;48.692;9.020;2022-12-10T15:19:16;26.43;;;11.60;;